Time;durP1;ratioP1;P1;durP2;ratioP2;P2;SDS_P1;SDS_P2;PMS_P1;PMS_P2;Temp;Humidity;BMP_temperature;BMP_pressure;BME280_temperature;BME280_humidity;BME280_pressure;Samples;Min_cycle;Max_cycle;Signal;HPM_P1;HPM_P2
2022/01/27 00:05:03;;;;;;;16.30;8.30;;;-3.10;99.90;;;;;;5112720;28;20085;-77
2022/01/27 00:07:30;;;;;;;15.90;8.20;;;-3.10;99.90;;;;;;5113129;28;20554;-76
2022/01/27 00:10:20;;;;;;;16.48;8.50;;;-3.20;99.90;;;;;;5113715;28;20434;-76
2022/01/27 00:12:45;;;;;;;16.35;7.90;;;-3.10;99.90;;;;;;5099132;28;20031;-76
2022/01/27 00:15:14;;;;;;;16.42;8.27;;;-3.10;99.90;;;;;;5113287;28;20092;-76
2022/01/27 00:17:45;;;;;;;19.27;8.68;;;-3.10;99.90;;;;;;5113132;28;20093;-76
2022/01/27 00:20:12;;;;;;;20.13;8.93;;;-3.10;99.90;;;;;;5106708;28;20035;-76
2022/01/27 00:22:38;;;;;;;15.20;7.95;;;-3.10;99.90;;;;;;5115919;28;20023;-76
2022/01/27 00:25:06;;;;;;;15.70;7.78;;;-3.10;99.90;;;;;;5117146;28;20043;-77
2022/01/27 00:27:33;;;;;;;15.05;8.10;;;-3.10;99.90;;;;;;5117241;28;20031;-77
2022/01/27 00:30:04;;;;;;;17.35;8.65;;;-3.10;99.90;;;;;;5117190;28;20069;-76
2022/01/27 00:32:31;;;;;;;18.75;8.73;;;-3.20;99.90;;;;;;5115006;28;20381;-76
2022/01/27 00:34:58;;;;;;;18.70;9.70;;;-3.30;99.90;;;;;;5116772;28;20032;-77
2022/01/27 00:37:24;;;;;;;19.45;9.05;;;-3.40;99.90;;;;;;5116970;28;20036;-78
2022/01/27 00:39:49;;;;;;;19.15;9.40;;;-3.40;99.90;;;;;;5117767;28;20034;-76
2022/01/27 00:42:15;;;;;;;19.73;9.20;;;-3.40;99.90;;;;;;5117236;28;20471;-77
2022/01/27 00:44:41;;;;;;;17.55;8.77;;;-3.40;99.90;;;;;;5095479;28;20040;-76
2022/01/27 00:47:06;;;;;;;16.17;8.50;;;-3.50;99.90;;;;;;5111033;28;20089;-76
2022/01/27 00:49:33;;;;;;;17.63;8.40;;;-3.40;99.90;;;;;;5082641;28;20043;-76
2022/01/27 00:52:01;;;;;;;16.60;7.93;;;-3.40;99.90;;;;;;5117102;28;20072;-76
2022/01/27 00:54:28;;;;;;;14.98;7.10;;;-3.50;99.90;;;;;;5116844;28;20024;-76
2022/01/27 00:57:08;;;;;;;12.82;6.88;;;-3.50;99.90;;;;;;5117212;28;20133;-76
2022/01/27 00:59:56;;;;;;;14.32;7.18;;;-3.50;99.90;;;;;;5116781;28;20031;-76
2022/01/27 01:07:54;;;;;;;12.45;6.97;;;-3.50;99.90;;;;;;5104814;28;20035;-77
2022/01/27 01:15:59;;;;;;;15.25;7.35;;;-3.50;99.90;;;;;;5030128;28;20387;-79
2022/01/27 01:31:54;;;;;;;11.52;6.10;;;-3.70;99.90;;;;;;5116693;28;20039;-78
2022/01/27 01:34:24;;;;;;;13.05;6.50;;;-3.60;99.90;;;;;;5116670;28;20032;-78
2022/01/27 01:37:01;;;;;;;11.90;6.43;;;-3.60;99.90;;;;;;5116437;28;20050;-78
2022/01/27 01:39:29;;;;;;;11.57;6.28;;;-3.60;99.90;;;;;;5116695;28;20038;-78
2022/01/27 01:41:56;;;;;;;12.63;6.43;;;-3.60;99.90;;;;;;5116430;28;20038;-78
2022/01/27 01:44:23;;;;;;;11.10;6.18;;;-3.60;99.90;;;;;;5116045;28;20437;-78
2022/01/27 01:46:49;;;;;;;12.15;6.97;;;-3.60;99.90;;;;;;5097263;28;20094;-78
2022/01/27 01:49:15;;;;;;;12.60;6.65;;;-3.60;99.90;;;;;;5110233;28;20036;-78
2022/01/27 01:51:43;;;;;;;14.77;7.45;;;-3.70;99.90;;;;;;5108941;28;20032;-78
2022/01/27 01:54:10;;;;;;;14.25;7.28;;;-3.70;99.90;;;;;;5116365;28;20101;-78
2022/01/27 01:56:38;;;;;;;14.10;7.13;;;-3.70;99.90;;;;;;5097863;28;20134;-78
2022/01/27 01:59:05;;;;;;;14.88;8.13;;;-3.80;99.90;;;;;;5116079;28;20040;-78
2022/01/27 02:01:32;;;;;;;15.75;7.82;;;-3.80;99.90;;;;;;5081807;28;20357;-78
2022/01/27 02:04:04;;;;;;;18.45;7.78;;;-3.80;99.90;;;;;;5115539;28;20107;-78
2022/01/27 02:06:36;;;;;;;14.05;7.43;;;-3.80;99.90;;;;;;5094289;28;20471;-78
2022/01/27 02:19:54;;;;;;;15.88;7.65;;;-4.00;99.90;;;;;;5116654;28;20088;-78
2022/01/27 02:22:24;;;;;;;14.13;7.85;;;-3.90;99.90;;;;;;5113065;28;20043;-78
2022/01/27 02:24:50;;;;;;;14.77;7.50;;;-4.00;99.90;;;;;;5116259;28;20036;-78
2022/01/27 02:27:18;;;;;;;17.27;8.73;;;-4.00;99.90;;;;;;5116783;28;20035;-78
2022/01/27 02:29:44;;;;;;;16.15;8.68;;;-4.00;99.90;;;;;;5116566;28;20080;-78
2022/01/27 02:32:12;;;;;;;16.88;8.13;;;-4.00;99.90;;;;;;5116119;28;20039;-78
2022/01/27 02:34:37;;;;;;;22.40;8.43;;;-4.00;99.90;;;;;;5116513;28;20482;-78
2022/01/27 02:37:03;;;;;;;15.15;7.60;;;-4.00;99.90;;;;;;5116201;28;20031;-78
2022/01/27 02:39:29;;;;;;;13.45;7.43;;;-4.10;99.90;;;;;;5116253;28;20028;-78
2022/01/27 02:41:55;;;;;;;15.93;7.68;;;-4.30;99.90;;;;;;5116280;28;20039;-78
2022/01/27 02:44:41;;;;;;;13.02;6.53;;;-4.30;99.90;;;;;;5115087;28;20035;-78
2022/01/27 02:47:06;;;;;;;12.10;6.32;;;-4.40;99.90;;;;;;5064068;28;20032;-78
2022/01/27 02:49:32;;;;;;;11.13;6.10;;;-4.40;99.90;;;;;;5096378;28;20032;-78
2022/01/27 02:51:58;;;;;;;12.55;6.00;;;-4.40;99.90;;;;;;5115411;28;20027;-78
2022/01/27 02:54:23;;;;;;;13.35;6.45;;;-4.40;99.90;;;;;;5114131;28;20089;-77
2022/01/27 02:56:49;;;;;;;12.27;6.20;;;-4.40;99.90;;;;;;5116133;28;20047;-78
2022/01/27 02:59:17;;;;;;;12.75;6.85;;;-4.40;99.90;;;;;;5096818;28;20033;-78
2022/01/27 03:01:48;;;;;;;14.43;6.60;;;-4.40;99.90;;;;;;5115407;28;20509;-78
2022/01/27 03:04:15;;;;;;;16.85;7.88;;;-4.40;99.90;;;;;;5115010;28;20103;-78
2022/01/27 03:06:42;;;;;;;14.85;7.15;;;-4.40;99.90;;;;;;5115453;28;20020;-78
2022/01/27 03:09:08;;;;;;;11.95;6.97;;;-4.40;99.90;;;;;;5115930;28;20038;-78
2022/01/27 03:11:56;;;;;;;13.23;6.82;;;-4.50;99.90;;;;;;5114826;28;20019;-78
2022/01/27 03:14:23;;;;;;;14.70;6.40;;;-4.50;99.90;;;;;;5114708;28;20031;-78
2022/01/27 03:16:54;;;;;;;10.45;5.82;;;-4.60;99.90;;;;;;5114902;28;20053;-78
2022/01/27 03:19:19;;;;;;;12.50;6.15;;;-4.60;99.90;;;;;;5115005;28;20391;-78
2022/01/27 03:21:45;;;;;;;10.50;5.75;;;-4.70;99.90;;;;;;5097144;28;20122;-78
2022/01/27 03:24:11;;;;;;;10.38;6.13;;;-4.70;99.90;;;;;;5114821;28;20028;-78
2022/01/27 03:26:37;;;;;;;11.80;5.93;;;-4.70;99.90;;;;;;5115149;28;20032;-78
2022/01/27 03:29:03;;;;;;;12.20;5.95;;;-4.80;99.90;;;;;;5115125;28;20422;-78
2022/01/27 03:31:29;;;;;;;11.40;5.95;;;-4.90;99.90;;;;;;5114764;28;20032;-78
2022/01/27 03:33:55;;;;;;;10.80;5.43;;;-4.90;99.90;;;;;;5114719;28;20538;-78
2022/01/27 03:36:21;;;;;;;11.40;5.00;;;-4.90;99.90;;;;;;5114020;28;20403;-78
2022/01/27 03:38:48;;;;;;;11.55;5.93;;;-4.90;99.90;;;;;;5114816;28;20449;-78
2022/01/27 03:41:18;;;;;;;10.65;5.68;;;-4.90;99.90;;;;;;5114272;28;20118;-77
2022/01/27 03:43:45;;;;;;;11.35;5.55;;;-4.90;99.90;;;;;;5114339;28;20032;-78
2022/01/27 03:46:10;;;;;;;10.07;5.05;;;-4.90;99.90;;;;;;5114589;28;20445;-78
2022/01/27 03:48:36;;;;;;;10.18;5.47;;;-4.90;99.90;;;;;;5114918;28;20020;-78
2022/01/27 03:51:03;;;;;;;14.02;5.80;;;-5.00;99.90;;;;;;5096378;28;20031;-78
2022/01/27 03:53:30;;;;;;;10.50;5.47;;;-5.00;99.90;;;;;;5114166;28;20385;-78
2022/01/27 03:55:56;;;;;;;11.07;5.60;;;-5.00;99.90;;;;;;5114004;28;20036;-78
2022/01/27 03:58:22;;;;;;;11.48;5.95;;;-5.10;99.90;;;;;;5114587;28;20485;-78
2022/01/27 04:00:48;;;;;;;10.40;5.28;;;-5.10;99.90;;;;;;5114151;28;20063;-78
2022/01/27 04:03:16;;;;;;;9.40;5.05;;;-5.10;99.90;;;;;;5114488;28;20032;-78
2022/01/27 04:05:49;;;;;;;18.83;7.50;;;-5.20;99.90;;;;;;5114661;28;20080;-78
2022/01/27 04:08:15;;;;;;;14.05;6.57;;;-5.20;99.90;;;;;;5114242;28;20092;-78
2022/01/27 04:10:42;;;;;;;11.10;5.97;;;-5.20;99.90;;;;;;5114432;28;20055;-78
2022/01/27 04:13:08;;;;;;;12.82;6.55;;;-5.30;99.90;;;;;;5113831;28;20034;-78
2022/01/27 04:15:36;;;;;;;10.75;5.65;;;-5.30;99.90;;;;;;5096205;28;20059;-78
2022/01/27 04:18:02;;;;;;;11.02;5.90;;;-5.30;99.90;;;;;;5096246;28;20046;-78
2022/01/27 04:20:27;;;;;;;12.48;6.15;;;-5.30;99.90;;;;;;5114453;28;20043;-78
2022/01/27 04:22:53;;;;;;;15.07;6.82;;;-5.30;99.90;;;;;;5114016;28;20400;-78
2022/01/27 04:25:19;;;;;;;16.60;7.65;;;-5.30;99.90;;;;;;5094049;28;20034;-78
2022/01/27 04:27:52;;;;;;;16.83;7.57;;;-5.40;99.90;;;;;;5114439;28;20055;-78
2022/01/27 04:30:21;;;;;;;11.45;6.55;;;-5.40;99.90;;;;;;5114655;28;20027;-78
2022/01/27 04:32:52;;;;;;;14.18;6.30;;;-5.50;99.90;;;;;;5095981;28;20039;-78
2022/01/27 04:35:20;;;;;;;15.85;7.28;;;-5.50;99.90;;;;;;5113999;28;20506;-78
2022/01/27 04:40:39;;;;;;;31.90;10.68;;;-5.70;99.90;;;;;;5114226;28;20139;-79
2022/01/27 04:45:39;;;;;;;26.48;11.15;;;-5.80;99.90;;;;;;5096263;28;20040;-79
2022/01/27 04:48:13;;;;;;;26.15;9.88;;;-5.80;99.90;;;;;;5098618;28;20088;-79
2022/01/27 04:50:39;;;;;;;23.80;10.10;;;-5.80;99.90;;;;;;5115094;28;20032;-79
2022/01/27 04:53:09;;;;;;;33.95;12.50;;;-5.80;99.90;;;;;;5079249;28;20427;-79
2022/01/27 04:55:35;;;;;;;25.80;11.93;;;-5.80;99.90;;;;;;5107731;28;20031;-79
2022/01/27 04:58:12;;;;;;;30.17;13.00;;;-5.80;99.90;;;;;;5115090;28;20032;-79
2022/01/27 05:00:38;;;;;;;26.85;11.75;;;-5.80;99.90;;;;;;5114812;28;20031;-79
2022/01/27 05:03:13;;;;;;;29.40;10.90;;;-5.90;99.90;;;;;;5114326;28;20428;-78
2022/01/27 05:05:39;;;;;;;24.98;10.63;;;-5.90;99.90;;;;;;5114845;28;20063;-79
2022/01/27 05:08:09;;;;;;;19.42;9.35;;;-5.90;99.90;;;;;;5115906;28;20023;-78
2022/01/27 05:10:36;;;;;;;13.80;6.50;;;-5.80;99.90;;;;;;5100235;28;20036;-79
2022/01/27 05:13:09;;;;;;;17.52;6.88;;;-5.70;99.90;;;;;;5118443;28;20637;-78
2022/01/27 05:15:42;;;;;;;15.10;7.15;;;-5.70;99.90;;;;;;5118990;28;20035;-79
2022/01/27 05:18:08;;;;;;;12.93;6.32;;;-5.70;99.90;;;;;;5118766;28;20133;-80
2022/01/27 05:20:34;;;;;;;12.10;6.50;;;-5.70;99.90;;;;;;5099177;28;20066;-79
2022/01/27 05:23:00;;;;;;;11.23;5.45;;;-5.70;99.90;;;;;;5094056;28;20036;-79
2022/01/27 05:25:26;;;;;;;12.75;5.50;;;-5.80;99.90;;;;;;5113498;28;20114;-80
2022/01/27 05:27:51;;;;;;;44.08;12.73;;;-5.80;99.90;;;;;;5117615;28;20027;-80
2022/01/27 05:30:18;;;;;;;50.42;14.77;;;-5.80;99.90;;;;;;5117554;28;20098;-79
2022/01/27 05:32:43;;;;;;;24.52;10.75;;;-5.90;99.90;;;;;;5117578;28;20059;-80
2022/01/27 05:35:09;;;;;;;17.63;8.10;;;-5.90;99.90;;;;;;5117294;28;20031;-78
2022/01/27 05:37:35;;;;;;;16.15;6.88;;;-5.90;99.90;;;;;;5099880;28;20055;-79
2022/01/27 05:40:00;;;;;;;15.57;6.43;;;-5.90;99.90;;;;;;5117672;28;20039;-79
2022/01/27 05:42:26;;;;;;;17.40;6.88;;;-5.90;99.90;;;;;;5116729;28;20028;-79
2022/01/27 05:44:52;;;;;;;13.18;7.00;;;-5.90;99.90;;;;;;5117412;28;20065;-79
2022/01/27 05:47:18;;;;;;;14.35;5.80;;;-6.00;99.90;;;;;;5117492;28;20097;-79
2022/01/27 05:49:43;;;;;;;14.15;6.50;;;-6.00;99.90;;;;;;5120019;28;20440;-80
2022/01/27 05:52:09;;;;;;;15.50;6.80;;;-6.00;99.90;;;;;;5116896;28;20031;-79
2022/01/27 05:54:35;;;;;;;14.00;6.97;;;-6.00;99.90;;;;;;5098289;28;20149;-79
2022/01/27 05:57:01;;;;;;;43.88;19.83;;;-6.00;99.90;;;;;;5116201;28;20028;-79
2022/01/27 05:59:26;;;;;;;42.55;21.23;;;-6.00;99.90;;;;;;5098179;28;20035;-78
2022/01/27 06:01:52;;;;;;;41.00;18.42;;;-5.90;99.90;;;;;;5116530;28;20039;-79
2022/01/27 06:04:18;;;;;;;27.25;12.20;;;-5.90;99.90;;;;;;5115968;28;20038;-80
2022/01/27 06:06:44;;;;;;;21.58;9.90;;;-5.80;99.90;;;;;;5115964;28;20085;-79
2022/01/27 06:09:11;;;;;;;19.13;9.07;;;-5.80;99.90;;;;;;5097950;28;20023;-78
2022/01/27 06:11:36;;;;;;;19.35;9.00;;;-5.70;99.90;;;;;;5114199;28;20031;-79
2022/01/27 06:14:02;;;;;;;17.85;8.88;;;-5.70;99.90;;;;;;5116105;28;20047;-79
2022/01/27 06:16:29;;;;;;;16.67;8.10;;;-5.70;99.90;;;;;;5116126;28;20052;-79
2022/01/27 06:18:55;;;;;;;17.60;7.80;;;-5.70;99.90;;;;;;5115404;28;20487;-79
2022/01/27 06:21:21;;;;;;;14.18;6.72;;;-5.70;99.90;;;;;;5116214;28;20028;-79
2022/01/27 06:23:46;;;;;;;13.50;7.05;;;-5.70;99.90;;;;;;5116240;28;20043;-79
2022/01/27 06:26:12;;;;;;;19.20;8.52;;;-5.70;99.90;;;;;;5097605;28;20468;-79
2022/01/27 06:28:38;;;;;;;18.17;7.90;;;-5.80;99.90;;;;;;5116365;28;20070;-79
2022/01/27 06:31:04;;;;;;;14.75;6.88;;;-5.80;99.90;;;;;;5116286;28;20035;-79
2022/01/27 06:33:29;;;;;;;17.88;7.60;;;-5.80;99.90;;;;;;5116273;28;20028;-78
2022/01/27 06:35:55;;;;;;;14.55;7.20;;;-5.90;99.90;;;;;;5115891;28;20399;-79
2022/01/27 06:38:21;;;;;;;17.50;7.57;;;-5.90;99.90;;;;;;5115623;28;20030;-79
2022/01/27 06:40:46;;;;;;;17.15;8.20;;;-5.90;99.90;;;;;;5115665;28;20032;-79
2022/01/27 06:43:13;;;;;;;13.82;6.80;;;-5.90;99.90;;;;;;5116439;28;20032;-79
2022/01/27 06:45:39;;;;;;;18.33;7.78;;;-5.90;99.90;;;;;;5099111;28;20118;-79
2022/01/27 06:48:05;;;;;;;13.77;6.95;;;-5.90;99.90;;;;;;5117082;28;20066;-80
2022/01/27 06:50:36;;;;;;;19.15;7.70;;;-6.00;99.90;;;;;;5117040;28;20024;-80
2022/01/27 06:53:02;;;;;;;15.77;7.13;;;-6.10;99.90;;;;;;5116469;28;20031;-80
2022/01/27 06:55:28;;;;;;;18.45;7.68;;;-6.10;99.90;;;;;;5094427;28;20047;-80
2022/01/27 06:57:54;;;;;;;21.35;8.50;;;-6.10;99.90;;;;;;5109396;28;20036;-79
2022/01/27 07:00:19;;;;;;;22.33;9.23;;;-6.10;99.90;;;;;;5116962;28;20028;-79
2022/01/27 07:02:45;;;;;;;20.48;8.93;;;-6.10;99.90;;;;;;5116835;28;20032;-79
2022/01/27 07:05:14;;;;;;;18.38;8.63;;;-6.20;99.90;;;;;;5117029;28;20038;-80
2022/01/27 07:07:40;;;;;;;17.50;8.02;;;-6.20;99.90;;;;;;5116597;28;20016;-80
2022/01/27 07:10:06;;;;;;;20.92;8.73;;;-6.10;99.90;;;;;;5116855;28;20471;-80
2022/01/27 07:12:32;;;;;;;20.25;8.90;;;-6.10;99.90;;;;;;5085599;28;20476;-79
2022/01/27 07:14:58;;;;;;;18.73;7.95;;;-6.10;99.90;;;;;;5112393;28;20042;-78
2022/01/27 07:17:24;;;;;;;19.60;8.85;;;-6.10;99.90;;;;;;5114718;28;20388;-78
2022/01/27 07:19:50;;;;;;;20.77;10.98;;;-6.10;99.90;;;;;;5116050;28;20023;-79
2022/01/27 07:22:16;;;;;;;17.50;8.73;;;-6.10;99.90;;;;;;5115046;28;20395;-78
2022/01/27 07:24:42;;;;;;;19.55;9.40;;;-6.00;99.90;;;;;;5114251;28;20031;-79
2022/01/27 07:27:08;;;;;;;27.15;12.57;;;-6.00;99.90;;;;;;5113293;28;20023;-79
2022/01/27 07:29:35;;;;;;;40.95;18.38;;;-6.00;99.90;;;;;;5115290;28;20024;-79
2022/01/27 07:32:01;;;;;;;38.75;19.65;;;-6.00;99.90;;;;;;5096137;28;20080;-79
2022/01/27 07:34:26;;;;;;;35.35;17.70;;;-6.00;99.90;;;;;;5114837;28;20023;-79
2022/01/27 07:36:56;;;;;;;35.35;17.80;;;-6.00;99.90;;;;;;5115414;28;20177;-79
2022/01/27 07:39:22;;;;;;;38.83;17.80;;;-6.00;99.90;;;;;;5114891;28;20023;-79
2022/01/27 07:41:48;;;;;;;35.17;17.83;;;-6.00;99.90;;;;;;5114455;28;20038;-79
2022/01/27 07:44:13;;;;;;;45.35;22.38;;;-6.00;99.90;;;;;;5114513;28;20058;-79
2022/01/27 07:46:39;;;;;;;25.55;12.48;;;-6.00;99.90;;;;;;5096513;28;20063;-79
2022/01/27 07:49:05;;;;;;;20.50;8.60;;;-6.00;99.90;;;;;;5114677;28;20023;-79
2022/01/27 07:51:30;;;;;;;35.17;14.40;;;-6.00;99.90;;;;;;5114691;28;20498;-79
2022/01/27 07:53:56;;;;;;;21.00;9.00;;;-6.00;99.90;;;;;;5114518;28;20059;-79
2022/01/27 07:56:22;;;;;;;23.48;10.57;;;-6.10;99.90;;;;;;5096554;28;20031;-79
2022/01/27 07:58:47;;;;;;;25.45;10.38;;;-6.10;99.90;;;;;;5114671;28;20027;-79
2022/01/27 08:01:13;;;;;;;17.40;7.90;;;-6.10;99.90;;;;;;5114777;28;20032;-79
2022/01/27 08:03:39;;;;;;;18.73;7.32;;;-6.10;99.90;;;;;;5096180;28;20089;-79
2022/01/27 08:06:06;;;;;;;18.23;6.72;;;-6.10;99.90;;;;;;5114730;28;20097;-79
2022/01/27 08:08:32;;;;;;;18.17;6.88;;;-6.10;99.90;;;;;;5114713;28;20039;-79
2022/01/27 08:10:58;;;;;;;17.70;6.82;;;-6.20;99.90;;;;;;5096282;28;20039;-79
2022/01/27 08:13:25;;;;;;;21.33;6.82;;;-6.20;99.90;;;;;;5114589;28;20399;-79
2022/01/27 08:15:51;;;;;;;17.20;6.68;;;-6.20;99.90;;;;;;5114301;28;20031;-79
2022/01/27 08:18:16;;;;;;;18.05;7.07;;;-6.20;99.90;;;;;;5096373;28;20055;-79
2022/01/27 08:20:43;;;;;;;18.15;7.22;;;-6.20;99.90;;;;;;5114364;28;20138;-79
2022/01/27 08:23:09;;;;;;;16.35;6.80;;;-6.10;99.90;;;;;;5114150;28;20038;-79
2022/01/27 08:25:35;;;;;;;14.63;6.20;;;-6.10;99.90;;;;;;5114048;28;20114;-79
2022/01/27 08:28:05;;;;;;;12.45;7.18;;;-6.10;99.90;;;;;;5096140;28;20062;-79
2022/01/27 08:30:38;;;;;;;13.90;6.05;;;-6.00;99.90;;;;;;5114775;28;20028;-79
2022/01/27 08:33:14;;;;;;;19.92;8.23;;;-6.00;99.90;;;;;;5096187;28;20032;-79
2022/01/27 08:35:40;;;;;;;17.58;7.95;;;-5.90;99.90;;;;;;5096796;28;20035;-79
2022/01/27 08:38:06;;;;;;;16.83;7.25;;;-5.90;99.90;;;;;;5114833;28;20043;-79
2022/01/27 08:40:32;;;;;;;16.70;7.90;;;-5.90;99.90;;;;;;5113959;28;20032;-79
2022/01/27 08:42:58;;;;;;;18.98;8.52;;;-5.90;99.90;;;;;;5097639;28;20035;-79
2022/01/27 08:45:25;;;;;;;16.00;8.98;;;-5.90;99.90;;;;;;5100133;28;20483;-79
2022/01/27 08:47:51;;;;;;;18.38;9.07;;;-5.80;99.90;;;;;;5118425;28;20387;-79
2022/01/27 08:50:20;;;;;;;18.85;9.38;;;-5.70;99.90;;;;;;5117985;28;20019;-79
2022/01/27 08:52:46;;;;;;;20.98;9.32;;;-5.70;99.90;;;;;;5099727;28;20039;-79
2022/01/27 08:55:12;;;;;;;23.08;10.25;;;-5.60;99.90;;;;;;5118755;28;20028;-79
2022/01/27 08:57:38;;;;;;;24.10;10.15;;;-5.60;99.90;;;;;;5118291;28;20063;-79
2022/01/27 09:00:09;;;;;;;19.33;10.05;;;-5.50;99.90;;;;;;5117668;28;20028;-79
2022/01/27 09:02:35;;;;;;;23.40;10.82;;;-5.50;99.90;;;;;;5117557;28;20497;-79
2022/01/27 09:05:00;;;;;;;26.70;12.05;;;-5.40;99.90;;;;;;5099593;28;20032;-79
2022/01/27 09:07:26;;;;;;;28.35;10.75;;;-5.30;99.90;;;;;;5117697;28;20034;-79
2022/01/27 09:09:52;;;;;;;21.15;9.98;;;-5.20;99.90;;;;;;5117519;28;20028;-79
2022/01/27 09:12:18;;;;;;;23.10;12.25;;;-5.10;99.90;;;;;;5118088;28;20024;-79
2022/01/27 09:14:44;;;;;;;28.67;12.25;;;-5.10;99.90;;;;;;5118062;28;20399;-79
2022/01/27 09:17:11;;;;;;;21.98;10.88;;;-5.10;99.90;;;;;;5099299;28;20032;-79
2022/01/27 09:19:40;;;;;;;25.55;11.05;;;-5.00;99.90;;;;;;5117476;28;20055;-79
2022/01/27 09:22:08;;;;;;;23.25;11.68;;;-4.90;99.90;;;;;;5117757;28;20024;-79
2022/01/27 09:24:40;;;;;;;20.67;9.95;;;-4.90;99.90;;;;;;5117222;28;20035;-79
2022/01/27 09:27:06;;;;;;;21.65;10.88;;;-4.90;99.90;;;;;;5117851;28;20028;-79
2022/01/27 09:29:32;;;;;;;23.80;11.35;;;-4.80;99.90;;;;;;5117496;28;20442;-79
2022/01/27 09:31:59;;;;;;;20.80;10.90;;;-4.80;99.90;;;;;;5117702;28;20047;-80
2022/01/27 09:34:25;;;;;;;39.30;16.10;;;-4.70;99.90;;;;;;5117806;28;20046;-80
2022/01/27 09:36:52;;;;;;;27.48;11.70;;;-4.70;99.90;;;;;;5099033;28;20099;-79
2022/01/27 09:39:19;;;;;;;23.45;11.48;;;-4.60;99.90;;;;;;5118137;28;20545;-79
2022/01/27 09:41:46;;;;;;;28.17;11.35;;;-4.60;99.90;;;;;;5117766;28;20102;-79
2022/01/27 09:44:13;;;;;;;26.92;11.23;;;-4.50;99.90;;;;;;5117275;28;20039;-79
2022/01/27 09:46:42;;;;;;;25.73;10.82;;;-4.40;99.90;;;;;;5099196;28;20036;-79
2022/01/27 09:49:15;;;;;;;22.65;10.55;;;-4.40;99.90;;;;;;5099047;28;20510;-79
2022/01/27 09:51:44;;;;;;;23.08;10.60;;;-4.30;99.90;;;;;;5117748;28;20032;-79
2022/01/27 09:54:11;;;;;;;22.20;10.13;;;-4.30;99.90;;;;;;5115844;28;20510;-79
2022/01/27 09:56:40;;;;;;;35.15;14.55;;;-4.20;99.90;;;;;;5117263;28;20036;-79
2022/01/27 09:59:07;;;;;;;44.08;16.73;;;-4.10;99.90;;;;;;5117095;28;20032;-79
2022/01/27 10:01:33;;;;;;;43.33;17.60;;;-4.00;99.90;;;;;;5098414;28;20086;-79
2022/01/27 10:04:04;;;;;;;40.67;14.75;;;-4.00;99.90;;;;;;5117107;28;20120;-79
2022/01/27 10:06:32;;;;;;;57.58;13.65;;;-3.90;99.90;;;;;;5098492;28;20483;-79
2022/01/27 10:09:13;;;;;;;46.22;12.18;;;-3.80;99.90;;;;;;5116647;28;20036;-79
2022/01/27 10:11:40;;;;;;;62.03;12.68;;;-3.80;99.90;;;;;;5118247;28;20036;-80
2022/01/27 10:14:17;;;;;;;61.05;13.93;;;-3.80;99.90;;;;;;5118892;28;20038;-79
2022/01/27 10:16:43;;;;;;;45.92;12.48;;;-3.80;99.90;;;;;;5116708;28;20027;-79
2022/01/27 10:19:11;;;;;;;27.48;10.55;;;-3.80;99.90;;;;;;5116489;28;20059;-79
2022/01/27 10:21:37;;;;;;;40.47;13.68;;;-3.70;99.90;;;;;;5116547;28;20088;-79
2022/01/27 10:24:27;;;;;;;39.25;13.02;;;-3.70;99.90;;;;;;5116127;28;20032;-79
2022/01/27 10:27:17;;;;;;;41.53;11.68;;;-3.60;99.90;;;;;;5116370;28;20030;-79
2022/01/27 10:30:05;;;;;;;31.40;12.53;;;-3.60;99.90;;;;;;5116484;28;20479;-79
2022/01/27 10:32:41;;;;;;;33.25;12.35;;;-3.50;99.90;;;;;;5116427;28;20027;-79
2022/01/27 10:35:08;;;;;;;38.38;12.85;;;-3.40;99.90;;;;;;5116413;28;20422;-79
2022/01/27 10:38:01;;;;;;;37.05;13.60;;;-3.30;99.90;;;;;;5116450;28;20031;-79
2022/01/27 10:40:36;;;;;;;34.25;12.23;;;-3.20;99.90;;;;;;5104355;28;20498;-79
2022/01/27 10:43:15;;;;;;;35.42;13.18;;;-3.10;99.90;;;;;;5115920;28;20034;-79
2022/01/27 10:46:08;;;;;;;35.42;13.45;;;-3.00;99.90;;;;;;5097432;28;20032;-79
2022/01/27 10:48:39;;;;;;;32.03;12.23;;;-2.90;99.90;;;;;;5115628;28;20024;-79
2022/01/27 10:51:14;;;;;;;28.80;11.70;;;-2.80;99.90;;;;;;5115964;28;20027;-79
2022/01/27 10:53:53;;;;;;;27.45;11.98;;;-2.60;99.90;;;;;;5118406;28;20114;-80
2022/01/27 10:56:22;;;;;;;23.30;10.30;;;-2.50;99.90;;;;;;5118328;28;20446;-79
2022/01/27 10:58:48;;;;;;;30.23;11.15;;;-2.40;99.90;;;;;;5097310;28;20390;-79
2022/01/27 11:01:29;;;;;;;31.23;13.20;;;-2.20;99.90;;;;;;5115574;28;20111;-79
2022/01/27 11:03:57;;;;;;;27.25;11.13;;;-2.20;99.90;;;;;;5115249;28;20055;-79
2022/01/27 11:06:25;;;;;;;34.42;12.23;;;-2.10;99.90;;;;;;5115384;28;20027;-80
2022/01/27 11:08:54;;;;;;;29.55;12.32;;;-2.00;99.90;;;;;;5115447;28;20093;-79
2022/01/27 11:11:25;;;;;;;33.63;15.50;;;-1.90;99.90;;;;;;5115195;28;20081;-80
2022/01/27 11:13:53;;;;;;;33.63;14.45;;;-1.80;99.90;;;;;;5115312;28;20395;-79
2022/01/27 11:16:28;;;;;;;36.67;13.85;;;-1.60;99.90;;;;;;5115060;28;20032;-80
2022/01/27 11:19:01;;;;;;;35.45;13.63;;;-1.50;99.90;;;;;;5115223;28;20030;-80
2022/01/27 11:21:34;;;;;;;26.58;12.60;;;-1.50;99.90;;;;;;5096751;28;20032;-80
2022/01/27 11:24:08;;;;;;;32.45;13.95;;;-1.50;99.90;;;;;;5096648;28;20032;-79
2022/01/27 11:26:40;;;;;;;32.40;12.65;;;-1.40;99.90;;;;;;5114965;28;20036;-80
2022/01/27 11:29:08;;;;;;;26.77;12.88;;;-1.40;99.90;;;;;;5114877;28;20395;-79
2022/01/27 11:31:45;;;;;;;36.60;14.07;;;-1.30;99.90;;;;;;5096628;28;20028;-80
2022/01/27 11:34:11;;;;;;;37.75;15.35;;;-1.20;99.90;;;;;;5114877;28;20055;-80
2022/01/27 11:36:38;;;;;;;28.65;14.10;;;-1.10;99.90;;;;;;5115113;28;20028;-80
2022/01/27 11:39:14;;;;;;;40.47;16.63;;;-1.00;99.90;;;;;;5096278;28;20032;-80
2022/01/27 11:41:47;;;;;;;35.83;16.05;;;-0.90;99.90;;;;;;5096161;28;20032;-80
2022/01/27 11:44:24;;;;;;;30.85;15.02;;;-0.80;99.90;;;;;;5114404;28;20064;-80
2022/01/27 11:47:08;;;;;;;34.20;14.88;;;-0.80;99.90;;;;;;5114323;28;20032;-80
2022/01/27 11:50:22;;;;;;;35.70;15.77;;;-0.70;99.90;;;;;;5114486;28;20031;-80
2022/01/27 11:52:52;;;;;;;35.17;13.32;;;-0.70;99.90;;;;;;5095920;28;20526;-79
2022/01/27 11:55:23;;;;;;;34.85;14.15;;;-0.60;99.90;;;;;;5114067;28;20089;-79
2022/01/27 11:57:50;;;;;;;43.45;14.98;;;-0.50;99.90;;;;;;5114136;28;20110;-80
2022/01/27 12:00:21;;;;;;;26.98;13.55;;;-0.50;99.90;;;;;;5096072;28;20040;-80
2022/01/27 12:02:56;;;;;;;27.33;13.82;;;-0.40;99.90;;;;;;5114943;28;20039;-80
2022/01/27 12:05:23;;;;;;;32.03;14.65;;;-0.30;99.90;;;;;;5095872;28;20046;-80
2022/01/27 12:08:12;;;;;;;27.98;14.40;;;-0.20;99.90;;;;;;5113964;28;20076;-80
2022/01/27 12:10:48;;;;;;;28.30;14.70;;;-0.10;99.90;;;;;;5114159;28;20024;-80
2022/01/27 12:16:10;;;;;;;27.42;14.73;;;0.20;99.90;;;;;;5114294;28;20036;-80
2022/01/27 12:18:38;;;;;;;32.40;15.73;;;0.30;99.90;;;;;;5117141;28;20031;-80
2022/01/27 12:21:35;;;;;;;32.10;15.13;;;0.40;99.90;;;;;;5118403;28;20028;-80
2022/01/27 12:24:18;;;;;;;31.17;15.13;;;0.50;99.90;;;;;;5118173;28;20032;-79
2022/01/27 12:26:45;;;;;;;31.38;16.63;;;0.60;99.90;;;;;;5100087;28;20119;-80
2022/01/27 12:29:11;;;;;;;28.77;15.77;;;0.60;99.90;;;;;;5118177;28;20027;-80
2022/01/27 12:31:40;;;;;;;27.63;14.93;;;0.80;99.90;;;;;;5118416;28;20410;-80
2022/01/27 12:34:06;;;;;;;31.90;14.95;;;0.80;99.90;;;;;;5118110;28;20042;-79
2022/01/27 12:36:31;;;;;;;28.75;16.00;;;0.80;99.90;;;;;;5118378;28;20023;-80
2022/01/27 12:38:57;;;;;;;34.97;17.88;;;0.90;99.90;;;;;;5100320;28;20116;-79
2022/01/27 12:41:23;;;;;;;34.80;16.42;;;0.90;99.90;;;;;;5117927;28;20038;-80
2022/01/27 12:43:52;;;;;;;37.13;15.73;;;1.00;99.90;;;;;;5117586;28;20043;-80
2022/01/27 12:46:18;;;;;;;29.83;16.17;;;1.10;99.90;;;;;;5099600;28;20023;-80
2022/01/27 12:48:47;;;;;;;30.50;16.08;;;1.10;99.90;;;;;;5118281;28;20107;-80
2022/01/27 12:51:13;;;;;;;33.13;17.00;;;1.20;99.90;;;;;;5117876;28;20483;-80
2022/01/27 12:53:39;;;;;;;39.10;18.80;;;1.20;99.90;;;;;;5117923;28;20031;-79
2022/01/27 12:56:09;;;;;;;44.42;19.50;;;1.30;99.90;;;;;;5117925;28;20459;-80
2022/01/27 12:58:34;;;;;;;29.55;17.05;;;1.40;99.90;;;;;;5115296;28;20028;-79
2022/01/27 13:01:01;;;;;;;33.10;15.85;;;1.40;99.90;;;;;;5114355;28;20110;-79
2022/01/27 13:03:27;;;;;;;31.42;17.27;;;1.50;99.90;;;;;;5097657;28;20036;-81
2022/01/27 13:05:55;;;;;;;34.00;16.42;;;1.50;99.90;;;;;;5115465;28;20032;-81
2022/01/27 13:08:30;;;;;;;34.38;16.27;;;1.50;99.90;;;;;;5117702;28;20064;-81
2022/01/27 13:11:00;;;;;;;30.52;16.10;;;1.60;99.90;;;;;;5117473;28;20032;-81
2022/01/27 13:13:30;;;;;;;29.58;14.75;;;1.70;99.90;;;;;;5098993;28;20067;-81
2022/01/27 13:16:02;;;;;;;37.58;17.27;;;1.70;99.90;;;;;;5099177;28;20035;-82
2022/01/27 13:18:36;;;;;;;38.03;16.58;;;1.80;99.90;;;;;;5117322;28;20063;-81
2022/01/27 13:21:03;;;;;;;38.45;18.70;;;1.80;99.90;;;;;;5117629;28;20054;-82
2022/01/27 13:26:00;;;;;;;40.10;18.70;;;1.90;99.90;;;;;;5117723;28;20024;-81
2022/01/27 13:28:28;;;;;;;34.30;17.90;;;1.90;99.90;;;;;;5115637;28;20345;-81
2022/01/27 13:31:00;;;;;;;34.50;17.83;;;1.90;99.90;;;;;;5099234;28;20028;-82